createdAt,value
2022-10-08T00:02:01.324Z,20.64
2022-10-08T00:05:04.584Z,20.64
2022-10-08T00:08:09.857Z,20.64
2022-10-08T00:11:16.405Z,20.64
2022-10-08T00:14:19.215Z,20.63
2022-10-08T00:17:22.022Z,20.63
2022-10-08T00:20:24.859Z,20.63
2022-10-08T00:23:28.997Z,20.64
2022-10-08T00:26:33.362Z,20.64
2022-10-08T00:29:36.646Z,20.63
2022-10-08T00:32:39.561Z,20.62
2022-10-08T00:35:42.331Z,20.62
2022-10-08T00:38:46.537Z,20.61
2022-10-08T00:41:52.564Z,20.61
2022-10-08T00:44:58.283Z,20.62
2022-10-08T00:48:01.166Z,20.60
2022-10-08T00:51:04.026Z,20.61
2022-10-08T00:54:08.928Z,20.60
2022-10-08T00:57:12.133Z,20.61
2022-10-08T01:00:17.895Z,20.60
2022-10-08T01:03:20.744Z,20.60
2022-10-08T01:06:29.058Z,20.61
2022-10-08T01:09:39.887Z,20.60
2022-10-08T01:12:52.320Z,20.59
2022-10-08T01:16:02.056Z,20.59
2022-10-08T01:19:32.963Z,20.59
2022-10-08T01:22:54.336Z,20.59
2022-10-08T01:26:08.549Z,20.58
2022-10-08T01:29:17.256Z,20.58
2022-10-08T01:32:23.968Z,20.57
2022-10-08T01:35:31.198Z,20.58
2022-10-08T01:38:36.765Z,20.57
2022-10-08T01:41:40.791Z,20.57
2022-10-08T01:44:49.149Z,20.57
2022-10-08T01:47:52.899Z,20.57
2022-10-08T01:51:03.007Z,20.57
2022-10-08T01:54:10.468Z,20.57
2022-10-08T01:57:13.805Z,20.57
2022-10-08T02:00:18.834Z,20.56
2022-10-08T02:03:21.625Z,20.56
2022-10-08T02:06:24.557Z,20.56
2022-10-08T02:09:29.196Z,20.55
2022-10-08T02:12:32.097Z,20.55
2022-10-08T02:15:45.448Z,20.55
2022-10-08T02:18:56.356Z,20.54
2022-10-08T02:22:01.424Z,20.54
2022-10-08T02:25:14.120Z,20.54
2022-10-08T02:28:24.407Z,20.54
2022-10-08T02:31:35.993Z,20.54
2022-10-08T02:34:42.623Z,20.53
2022-10-08T02:37:50.369Z,20.54
2022-10-08T02:40:55.963Z,20.53
2022-10-08T02:44:03.035Z,20.53
2022-10-08T02:47:11.366Z,20.53
2022-10-08T02:50:21.540Z,20.52
2022-10-08T02:53:26.418Z,20.53
2022-10-08T02:56:34.865Z,20.53
2022-10-08T02:59:38.397Z,20.51
2022-10-08T03:02:53.247Z,20.51
2022-10-08T03:05:57.841Z,20.50
2022-10-08T03:09:02.724Z,20.52
2022-10-08T03:12:06.820Z,20.51
2022-10-08T03:15:12.103Z,20.52
2022-10-08T03:18:16.779Z,20.51
2022-10-08T03:21:20.269Z,20.51
2022-10-08T03:24:23.384Z,20.51
2022-10-08T03:27:26.292Z,20.51
2022-10-08T03:30:29.107Z,20.51
2022-10-08T03:33:33.461Z,20.50
2022-10-08T03:36:36.232Z,20.50
2022-10-08T03:39:39.005Z,20.49
2022-10-08T03:42:41.877Z,20.49
2022-10-08T03:45:51.236Z,20.50
2022-10-08T03:48:55.460Z,20.50
2022-10-08T03:51:58.339Z,20.49
2022-10-08T03:55:01.148Z,20.48
2022-10-08T03:58:03.972Z,20.49
2022-10-08T04:01:08.812Z,20.49
2022-10-08T04:04:13.016Z,20.49
2022-10-08T04:07:15.823Z,20.49
2022-10-08T04:10:18.671Z,20.49
2022-10-08T04:13:21.813Z,20.48
2022-10-08T04:16:24.663Z,20.48
2022-10-08T04:19:28.921Z,20.49
2022-10-08T04:22:31.746Z,20.48
2022-10-08T04:25:36.316Z,20.48
2022-10-08T04:28:40.733Z,20.47
2022-10-08T04:31:43.572Z,20.47
2022-10-08T04:34:47.844Z,20.47
2022-10-08T04:37:50.651Z,20.47
2022-10-08T04:41:03.093Z,20.47
2022-10-08T04:44:05.947Z,20.48
2022-10-08T04:47:08.845Z,20.48
2022-10-08T04:50:13.216Z,20.48
2022-10-08T04:53:16.101Z,20.47
2022-10-08T04:56:20.981Z,20.47
2022-10-08T04:59:23.805Z,20.46
2022-10-08T05:02:26.615Z,20.46
2022-10-08T05:05:30.856Z,20.45
2022-10-08T05:08:34.364Z,20.46
2022-10-08T05:11:37.134Z,20.45
2022-10-08T05:14:39.925Z,20.44
2022-10-08T05:17:42.863Z,20.44
2022-10-08T05:20:47.088Z,20.45
2022-10-08T05:23:55.123Z,20.46
2022-10-08T05:26:59.105Z,20.45
2022-10-08T05:30:03.241Z,20.46
2022-10-08T05:33:06.105Z,20.46
2022-10-08T05:36:19.634Z,20.46
2022-10-08T05:39:22.417Z,20.46
2022-10-08T05:42:25.271Z,20.45
2022-10-08T05:45:28.077Z,20.45
2022-10-08T05:48:30.935Z,20.45
2022-10-08T05:51:36.161Z,20.44
2022-10-08T05:54:38.954Z,20.45
2022-10-08T05:57:41.741Z,20.44
2022-10-08T06:00:44.629Z,20.44
2022-10-08T06:03:50.270Z,20.44
2022-10-08T06:06:54.435Z,20.44
2022-10-08T06:09:57.188Z,20.46
2022-10-08T06:13:00.059Z,20.45
2022-10-08T06:16:04.583Z,20.45
2022-10-08T06:19:10.362Z,20.46
2022-10-08T06:22:14.551Z,20.45
2022-10-08T06:25:17.358Z,20.45
2022-10-08T06:28:20.278Z,20.44
2022-10-08T06:31:23.349Z,20.44
2022-10-08T06:34:26.397Z,20.43
2022-10-08T06:37:30.554Z,20.43
2022-10-08T06:40:38.893Z,20.43
2022-10-08T06:43:41.702Z,20.44
2022-10-08T06:46:44.658Z,20.44
2022-10-08T06:49:47.530Z,20.45
2022-10-08T06:52:51.720Z,20.44
2022-10-08T06:55:57.835Z,20.46
2022-10-08T06:59:00.690Z,20.45
2022-10-08T07:02:03.564Z,20.44
2022-10-08T07:05:07.510Z,20.45
2022-10-08T07:08:11.682Z,20.45
2022-10-08T07:11:16.446Z,20.44
2022-10-08T07:14:19.282Z,20.44
2022-10-08T07:17:22.614Z,20.45
2022-10-08T07:20:25.525Z,20.46
2022-10-08T07:23:29.818Z,20.47
2022-10-08T07:26:34.490Z,20.49
2022-10-08T07:29:37.615Z,20.50
2022-10-08T07:32:40.403Z,20.52
2022-10-08T07:35:43.224Z,20.53
2022-10-08T07:38:48.035Z,20.54
2022-10-08T07:41:51.289Z,20.54
2022-10-08T07:44:54.058Z,20.55
2022-10-08T07:47:56.840Z,20.57
2022-10-08T07:51:08.514Z,20.58
2022-10-08T07:54:16.023Z,20.58
2022-10-08T07:57:18.801Z,20.59
2022-10-08T08:00:25.881Z,20.59
2022-10-08T08:03:29.133Z,20.60
2022-10-08T08:06:33.889Z,20.58
2022-10-08T08:09:38.329Z,20.58
2022-10-08T08:12:41.175Z,20.57
2022-10-08T08:15:43.936Z,20.55
2022-10-08T08:18:48.297Z,20.57
2022-10-08T08:21:51.251Z,20.56
2022-10-08T08:24:55.515Z,20.56
2022-10-08T08:27:58.361Z,20.58
2022-10-08T08:31:09.116Z,20.51
2022-10-08T08:34:14.257Z,20.45
2022-10-08T08:37:17.049Z,20.40
2022-10-08T08:40:21.244Z,20.36
2022-10-08T08:43:24.391Z,20.33
2022-10-08T08:46:29.373Z,20.30
2022-10-08T08:49:35.258Z,20.27
2022-10-08T08:52:41.224Z,20.22
2022-10-08T08:55:49.865Z,20.15
2022-10-08T08:58:59.385Z,20.05
2022-10-08T09:02:11.330Z,19.90
2022-10-08T09:05:17.092Z,19.87
2022-10-08T09:08:23.412Z,19.88
2022-10-08T09:11:30.451Z,19.91
2022-10-08T09:14:38.151Z,19.95
2022-10-08T09:17:42.974Z,19.98
2022-10-08T09:20:45.937Z,20.01
2022-10-08T09:23:49.062Z,20.04
2022-10-08T09:26:53.794Z,20.08
2022-10-08T09:29:56.682Z,20.12
2022-10-08T09:33:01.336Z,20.17
2022-10-08T09:36:04.362Z,20.21
2022-10-08T09:39:17.390Z,20.24
2022-10-08T09:42:21.520Z,20.29
2022-10-08T09:45:35.629Z,20.31
2022-10-08T09:48:39.537Z,20.34
2022-10-08T09:51:43.289Z,20.36
2022-10-08T09:54:49.408Z,20.38
2022-10-08T09:58:00.325Z,20.40
2022-10-08T10:01:07.520Z,20.40
2022-10-08T10:04:20.742Z,20.39
2022-10-08T10:07:24.334Z,20.37
2022-10-08T10:10:31.263Z,20.35
2022-10-08T10:13:38.559Z,20.36
2022-10-08T10:16:44.592Z,20.35
2022-10-08T10:19:54.951Z,20.32
2022-10-08T10:23:01.193Z,20.29
2022-10-08T10:26:08.619Z,20.26
2022-10-08T10:29:17.035Z,20.24
2022-10-08T10:32:23.968Z,20.21
2022-10-08T10:35:29.299Z,20.18
2022-10-08T10:38:40.754Z,20.14
2022-10-08T10:41:51.701Z,20.06
2022-10-08T10:44:58.399Z,20.06
2022-10-08T10:48:01.436Z,20.05
2022-10-08T10:51:18.392Z,20.07
2022-10-08T10:54:35.515Z,20.09
2022-10-08T10:57:53.563Z,20.10
2022-10-08T11:01:05.053Z,20.03
2022-10-08T11:04:16.242Z,19.97
2022-10-08T11:07:53.754Z,19.95
2022-10-08T11:11:10.434Z,19.97
2022-10-08T11:14:27.980Z,19.99
2022-10-08T11:17:44.785Z,20.00
2022-10-08T11:21:02.564Z,20.00
2022-10-08T11:24:23.479Z,20.02
2022-10-08T11:27:39.539Z,20.04
2022-10-08T11:30:48.256Z,20.06
2022-10-08T11:33:56.281Z,20.08
2022-10-08T11:37:10.018Z,20.10
2022-10-08T11:40:21.640Z,20.12
2022-10-08T11:43:31.992Z,20.15
2022-10-08T11:46:36.702Z,20.17
2022-10-08T11:49:55.051Z,20.17
2022-10-08T11:53:14.924Z,20.19
2022-10-08T11:56:20.605Z,20.21
2022-10-08T11:59:32.237Z,20.25
2022-10-08T12:02:38.437Z,20.28
2022-10-08T12:05:50.163Z,20.32
2022-10-08T12:08:56.811Z,20.34
2022-10-08T12:11:59.612Z,20.37
2022-10-08T12:15:02.497Z,20.39
2022-10-08T12:18:52.884Z,20.40
2022-10-08T12:21:57.099Z,20.42
2022-10-08T12:25:00.288Z,20.43
2022-10-08T12:28:54.801Z,20.43
2022-10-08T12:32:02.942Z,20.45
2022-10-08T12:35:06.118Z,20.45
2022-10-08T12:38:25.202Z,20.45
2022-10-08T12:41:31.151Z,20.45
2022-10-08T12:44:47.062Z,20.45
2022-10-08T12:48:00.265Z,20.46
2022-10-08T12:51:25.906Z,20.45
2022-10-08T12:54:31.764Z,20.45
2022-10-08T12:57:37.820Z,20.45
2022-10-08T13:00:40.895Z,20.44
2022-10-08T13:03:43.782Z,20.44
2022-10-08T13:06:47.383Z,20.43
2022-10-08T13:09:55.964Z,20.43
2022-10-08T13:13:03.556Z,20.43
2022-10-08T13:16:08.615Z,20.41
2022-10-08T13:19:18.765Z,20.41
2022-10-08T13:22:26.944Z,20.41
2022-10-08T13:25:36.314Z,20.41
2022-10-08T13:28:59.360Z,20.41
2022-10-08T13:32:04.823Z,20.41
2022-10-08T13:35:22.911Z,20.40
2022-10-08T13:38:28.372Z,20.39
2022-10-08T13:41:32.562Z,20.38
2022-10-08T13:44:37.613Z,20.38
2022-10-08T13:47:40.400Z,20.36
2022-10-08T13:50:45.037Z,20.35
2022-10-08T13:53:47.982Z,20.36
2022-10-08T13:56:52.557Z,20.36
2022-10-08T13:59:55.357Z,20.37
2022-10-08T14:02:58.406Z,20.37
2022-10-08T14:06:01.310Z,20.37
2022-10-08T14:09:06.232Z,20.38
2022-10-08T14:12:11.135Z,20.39
2022-10-08T14:15:16.284Z,20.38
2022-10-08T14:18:19.133Z,20.39
2022-10-08T14:21:22.395Z,20.40
2022-10-08T14:24:25.242Z,20.40
2022-10-08T14:27:29.814Z,20.40
2022-10-08T14:30:32.802Z,20.42
2022-10-08T14:33:35.667Z,20.41
2022-10-08T14:36:41.659Z,20.42
2022-10-08T14:39:44.710Z,20.41
2022-10-08T14:42:49.325Z,20.41
2022-10-08T14:45:52.667Z,20.41
2022-10-08T14:48:55.704Z,20.42
2022-10-08T14:51:58.499Z,20.41
2022-10-08T14:55:01.356Z,20.43
2022-10-08T14:58:05.822Z,20.43
2022-10-08T15:01:08.762Z,20.43
2022-10-08T15:04:14.828Z,20.44
2022-10-08T15:07:17.748Z,20.44
2022-10-08T15:10:20.570Z,20.44
2022-10-08T15:13:24.746Z,20.44
2022-10-08T15:16:27.700Z,20.43
2022-10-08T15:19:30.620Z,20.44
2022-10-08T15:22:33.409Z,20.46
2022-10-08T15:25:36.310Z,20.46
2022-10-08T15:28:40.628Z,20.47
2022-10-08T15:31:43.625Z,20.47
2022-10-08T15:34:46.545Z,20.48
2022-10-08T15:37:49.383Z,20.48
2022-10-08T15:40:52.339Z,20.48
2022-10-08T15:43:56.854Z,20.48
2022-10-08T15:47:02.533Z,20.48
2022-10-08T15:50:06.414Z,20.49
2022-10-08T15:53:09.256Z,20.48
2022-10-08T15:56:12.167Z,20.49
2022-10-08T15:59:16.439Z,20.49
2022-10-08T16:02:19.322Z,20.51
2022-10-08T16:05:22.212Z,20.51
2022-10-08T16:08:25.027Z,20.52
2022-10-08T16:11:29.779Z,20.52
2022-10-08T16:14:34.327Z,20.51
2022-10-08T16:17:37.311Z,20.51
2022-10-08T16:20:40.239Z,20.52
2022-10-08T16:23:43.118Z,20.52
2022-10-08T16:26:47.120Z,20.51
2022-10-08T16:29:51.752Z,20.52
2022-10-08T16:32:54.899Z,20.52
2022-10-08T16:36:02.093Z,20.54
2022-10-08T16:39:06.535Z,20.53
2022-10-08T16:42:09.376Z,20.53
2022-10-08T16:45:13.673Z,20.54
2022-10-08T16:48:16.524Z,20.54
2022-10-08T16:51:19.568Z,20.54
2022-10-08T16:54:23.231Z,20.53
2022-10-08T16:57:27.363Z,20.53
2022-10-08T17:00:32.097Z,20.54
2022-10-08T17:03:35.439Z,20.54
2022-10-08T17:06:38.851Z,20.54
2022-10-08T17:09:41.741Z,20.54
2022-10-08T17:12:45.001Z,20.55
2022-10-08T17:15:59.948Z,20.56
2022-10-08T17:19:03.681Z,20.56
2022-10-08T17:22:06.538Z,20.56
2022-10-08T17:25:10.590Z,20.56
2022-10-08T17:28:13.432Z,20.56
2022-10-08T17:31:19.350Z,20.56
2022-10-08T17:34:22.370Z,20.57
2022-10-08T17:37:25.147Z,20.56
2022-10-08T17:40:30.403Z,20.57
2022-10-08T17:43:33.208Z,20.58
2022-10-08T17:46:40.502Z,20.59
2022-10-08T17:49:43.404Z,20.58
2022-10-08T17:52:46.494Z,20.58
2022-10-08T17:55:58.639Z,20.60
2022-10-08T17:59:01.546Z,20.59
2022-10-08T18:02:05.917Z,20.59
2022-10-08T18:05:09.253Z,20.59
2022-10-08T18:08:12.065Z,20.60
2022-10-08T18:11:17.096Z,20.59
2022-10-08T18:14:20.249Z,20.59
2022-10-08T18:17:24.432Z,20.60
2022-10-08T18:20:27.289Z,20.62
2022-10-08T18:23:30.803Z,20.62
2022-10-08T18:26:37.048Z,20.63
2022-10-08T18:29:40.060Z,20.63
2022-10-08T18:32:44.242Z,20.64
2022-10-08T18:35:47.015Z,20.64
2022-10-08T18:38:55.711Z,20.65
2022-10-08T18:41:58.531Z,20.65
2022-10-08T18:45:01.391Z,20.65
2022-10-08T18:48:05.740Z,20.65
2022-10-08T18:51:10.792Z,20.66
2022-10-08T18:54:13.883Z,20.66
2022-10-08T18:57:16.665Z,20.67
2022-10-08T19:00:19.591Z,20.67
2022-10-08T19:03:23.858Z,20.68
2022-10-08T19:06:28.833Z,20.68
2022-10-08T19:09:31.633Z,20.67
2022-10-08T19:12:34.416Z,20.67
2022-10-08T19:15:37.740Z,20.67
2022-10-08T19:18:43.355Z,20.66
2022-10-08T19:21:46.760Z,20.65
2022-10-08T19:24:49.912Z,20.65
2022-10-08T19:27:52.768Z,20.65
2022-10-08T19:30:55.681Z,20.65
2022-10-08T19:34:01.362Z,20.65
2022-10-08T19:37:04.238Z,20.66
2022-10-08T19:40:07.582Z,20.65
2022-10-08T19:43:10.486Z,20.65
2022-10-08T19:46:13.480Z,20.65
2022-10-08T19:49:18.140Z,20.66
2022-10-08T19:52:21.151Z,20.65
2022-10-08T19:55:24.100Z,20.64
2022-10-08T19:58:26.946Z,20.65
2022-10-08T20:01:31.505Z,20.64
2022-10-08T20:04:35.837Z,20.63
2022-10-08T20:07:39.335Z,20.64
2022-10-08T20:10:42.254Z,20.65
2022-10-08T20:13:47.602Z,20.66
2022-10-08T20:16:50.672Z,20.66
2022-10-08T20:20:09.353Z,20.66
2022-10-08T20:23:18.459Z,20.65
2022-10-08T20:26:23.203Z,20.65
2022-10-08T20:29:30.730Z,20.65
2022-10-08T20:32:33.940Z,20.65
2022-10-08T20:35:38.292Z,20.65
2022-10-08T20:38:41.694Z,20.65
2022-10-08T20:41:44.858Z,20.66
2022-10-08T20:44:47.738Z,20.68
2022-10-08T20:47:50.559Z,20.69
2022-10-08T20:50:54.824Z,20.69
2022-10-08T20:53:59.814Z,20.68
2022-10-08T20:57:02.630Z,20.68
2022-10-08T21:00:06.280Z,20.68
2022-10-08T21:03:09.202Z,20.69
2022-10-08T21:06:15.519Z,20.67
2022-10-08T21:09:20.502Z,20.67
2022-10-08T21:12:23.337Z,20.67
2022-10-08T21:15:26.189Z,20.68
2022-10-08T21:18:29.262Z,20.68
2022-10-08T21:21:34.780Z,20.68
2022-10-08T21:24:37.601Z,20.68
2022-10-08T21:27:40.513Z,20.69
2022-10-08T21:30:43.368Z,20.68
2022-10-08T21:33:47.797Z,20.68
2022-10-08T21:36:52.079Z,20.69
2022-10-08T21:39:54.930Z,20.68
2022-10-08T21:42:57.930Z,20.68
2022-10-08T21:46:02.255Z,20.68
2022-10-08T21:49:07.681Z,20.67
2022-10-08T21:52:12.162Z,20.68
2022-10-08T21:55:15.072Z,20.68
2022-10-08T21:58:17.925Z,20.68
2022-10-08T22:01:23.458Z,20.69
2022-10-08T22:04:26.490Z,20.69
2022-10-08T22:07:30.690Z,20.70
2022-10-08T22:10:33.459Z,20.70
2022-10-08T22:13:36.351Z,20.70
2022-10-08T22:16:39.671Z,20.69
2022-10-08T22:19:43.018Z,20.69
2022-10-08T22:22:47.430Z,20.68
2022-10-08T22:25:54.118Z,20.68
2022-10-08T22:28:57.848Z,20.67
2022-10-08T22:32:00.803Z,20.68
2022-10-08T22:35:03.590Z,20.68
2022-10-08T22:38:07.873Z,20.67
2022-10-08T22:41:13.269Z,20.68
2022-10-08T22:44:16.178Z,20.69
2022-10-08T22:47:19.056Z,20.69
2022-10-08T22:50:21.905Z,20.68
2022-10-08T22:53:26.048Z,20.68
2022-10-08T22:56:30.845Z,20.69
2022-10-08T22:59:33.648Z,20.67
2022-10-08T23:02:36.995Z,20.66
2022-10-08T23:05:39.847Z,20.66
2022-10-08T23:08:45.042Z,20.65
2022-10-08T23:11:47.794Z,20.64
2022-10-08T23:14:50.627Z,20.64
2022-10-08T23:17:53.403Z,20.64
2022-10-08T23:20:56.283Z,20.63
2022-10-08T23:24:00.724Z,20.63
2022-10-08T23:27:07.499Z,20.64
2022-10-08T23:30:31.252Z,20.64
2022-10-08T23:33:37.891Z,20.64
2022-10-08T23:36:43.036Z,20.63
2022-10-08T23:39:47.191Z,20.64
2022-10-08T23:42:50.480Z,20.63
2022-10-08T23:45:53.504Z,20.63
2022-10-08T23:48:57.160Z,20.62
2022-10-08T23:51:59.959Z,20.60
2022-10-08T23:55:04.206Z,20.61
2022-10-08T23:58:06.991Z,20.59
